createdAt,value
2022-09-04T00:04:15.081Z,17.80
2022-09-04T00:09:11.116Z,17.70
2022-09-04T00:13:49.552Z,17.70
2022-09-04T00:18:31.883Z,17.70
2022-09-04T00:23:12.216Z,17.70
2022-09-04T00:27:51.435Z,17.70
2022-09-04T00:32:29.933Z,17.70
2022-09-04T00:37:08.472Z,17.70
2022-09-04T00:41:55.927Z,17.60
2022-09-04T00:46:54.063Z,17.60
2022-09-04T00:51:34.652Z,17.50
2022-09-04T00:56:44.273Z,17.50
2022-09-04T01:01:24.379Z,17.50
2022-09-04T01:06:13.592Z,17.50
2022-09-04T01:10:58.960Z,17.50
2022-09-04T01:15:41.229Z,17.50
2022-09-04T01:20:22.620Z,17.50
2022-09-04T01:25:09.717Z,17.40
2022-09-04T01:29:55.199Z,17.50
2022-09-04T01:34:41.071Z,17.40
2022-09-04T01:39:15.198Z,17.50
2022-09-04T01:43:49.733Z,17.50
2022-09-04T01:48:40.890Z,17.50
2022-09-04T01:53:19.739Z,17.50
2022-09-04T01:58:17.748Z,17.40
2022-09-04T02:03:00.307Z,17.40
2022-09-04T02:07:46.708Z,17.40
2022-09-04T02:12:30.267Z,17.40
2022-09-04T02:17:12.209Z,17.40
2022-09-04T02:21:51.838Z,17.30
2022-09-04T02:26:31.796Z,17.30
2022-09-04T02:31:13.701Z,17.20
2022-09-04T02:35:53.825Z,17.20
2022-09-04T02:40:33.530Z,17.20
2022-09-04T02:45:18.794Z,17.20
2022-09-04T02:50:00.580Z,17.20
2022-09-04T02:54:48.562Z,17.20
2022-09-04T02:59:36.212Z,17.10
2022-09-04T03:04:17.315Z,17.10
2022-09-04T03:08:57.144Z,17.00
2022-09-04T03:13:37.517Z,17.00
2022-09-04T03:18:20.899Z,17.00
2022-09-04T03:23:02.933Z,17.00
2022-09-04T03:27:36.989Z,16.90
2022-09-04T03:32:18.955Z,16.90
2022-09-04T03:37:07.803Z,16.90
2022-09-04T03:41:52.056Z,16.80
2022-09-04T03:46:39.107Z,16.80
2022-09-04T03:51:22.783Z,16.70
2022-09-04T03:56:24.631Z,16.60
2022-09-04T04:01:07.609Z,16.50
2022-09-04T04:05:48.279Z,16.50
2022-09-04T04:10:33.717Z,16.40
2022-09-04T04:15:20.360Z,16.30
2022-09-04T04:20:07.195Z,16.10
2022-09-04T04:24:54.966Z,16.00
2022-09-04T04:29:52.869Z,16.00
2022-09-04T04:34:34.783Z,15.90
2022-09-04T04:39:20.375Z,15.90
2022-09-04T04:44:08.238Z,15.80
2022-09-04T04:49:26.240Z,15.80
2022-09-04T04:54:14.533Z,15.90
2022-09-04T04:59:03.011Z,16.10
2022-09-04T05:03:49.459Z,16.50
2022-09-04T05:08:36.754Z,16.80
2022-09-04T05:13:17.692Z,17.20
2022-09-04T05:17:58.987Z,17.40
2022-09-04T05:22:37.692Z,17.80
2022-09-04T05:27:18.611Z,18.40
2022-09-04T05:31:59.595Z,19.00
2022-09-04T05:36:46.863Z,19.10
2022-09-04T05:41:34.707Z,18.80
2022-09-04T05:46:19.378Z,18.40
2022-09-04T05:51:43.985Z,17.90
2022-09-04T05:56:46.667Z,17.60
2022-09-04T06:01:36.030Z,17.50
2022-09-04T06:06:20.223Z,17.50
2022-09-04T06:11:04.671Z,17.50
2022-09-04T06:15:49.894Z,17.60
2022-09-04T06:20:44.692Z,17.60
2022-09-04T06:25:34.748Z,17.70
2022-09-04T06:30:11.371Z,17.80
2022-09-04T06:35:07.529Z,17.90
2022-09-04T06:40:03.948Z,18.00
2022-09-04T06:44:50.645Z,18.10
2022-09-04T06:49:38.005Z,18.20
2022-09-04T06:54:21.203Z,18.40
2022-09-04T06:59:10.650Z,18.50
2022-09-04T07:04:02.825Z,18.60
2022-09-04T07:08:52.144Z,18.80
2022-09-04T07:13:48.668Z,19.10
2022-09-04T07:18:44.386Z,19.60
2022-09-04T07:23:37.779Z,20.10
2022-09-04T07:28:24.308Z,20.80
2022-09-04T07:33:03.927Z,21.50
2022-09-04T07:37:48.286Z,21.80
2022-09-04T07:42:31.001Z,22.00
2022-09-04T07:47:12.658Z,22.20
2022-09-04T07:51:55.013Z,22.10
2022-09-04T07:56:45.447Z,22.20
2022-09-04T08:01:39.585Z,22.60
2022-09-04T08:06:21.157Z,22.50
2022-09-04T08:11:15.509Z,22.60
2022-09-04T08:15:58.651Z,22.90
2022-09-04T08:20:43.038Z,23.20
2022-09-04T08:25:25.189Z,23.60
2022-09-04T08:30:05.785Z,24.00
2022-09-04T08:35:01.239Z,24.50
2022-09-04T08:39:47.551Z,25.40
2022-09-04T08:44:50.150Z,26.80
2022-09-04T08:49:55.267Z,27.40
2022-09-04T08:55:07.448Z,27.90
2022-09-04T09:00:05.008Z,28.30
2022-09-04T09:05:23.630Z,28.60
2022-09-04T09:10:34.620Z,28.00
2022-09-04T09:15:46.723Z,27.20
2022-09-04T09:20:29.159Z,26.80
2022-09-04T09:25:20.631Z,26.90
2022-09-04T09:30:07.876Z,27.30
2022-09-04T09:35:22.176Z,28.10
2022-09-04T09:40:42.768Z,28.70
2022-09-04T09:45:50.719Z,28.60
2022-09-04T09:51:02.720Z,28.70
2022-09-04T09:56:06.946Z,29.60
2022-09-04T10:00:57.222Z,30.00
2022-09-04T10:06:06.434Z,30.20
2022-09-04T10:11:06.379Z,30.80
2022-09-04T10:16:19.640Z,31.50
2022-09-04T10:21:27.360Z,32.10
2022-09-04T10:26:35.798Z,32.10
2022-09-04T10:31:39.764Z,32.00
2022-09-04T10:36:25.779Z,32.20
2022-09-04T10:41:30.176Z,32.40
2022-09-04T10:46:22.627Z,32.20
2022-09-04T10:51:35.319Z,32.00
2022-09-04T10:56:19.096Z,31.40
2022-09-04T11:01:27.440Z,30.90
2022-09-04T11:06:26.317Z,30.30
2022-09-04T11:11:16.623Z,30.40
2022-09-04T11:16:09.516Z,30.40
2022-09-04T11:21:29.261Z,30.10
2022-09-04T11:26:30.734Z,29.90
2022-09-04T11:31:21.896Z,30.30
2022-09-04T11:36:29.699Z,30.30
2022-09-04T11:41:34.132Z,30.00
2022-09-04T11:46:36.091Z,29.90
2022-09-04T11:52:04.107Z,29.80
2022-09-04T11:56:57.791Z,29.60
2022-09-04T12:01:55.022Z,29.40
2022-09-04T13:06:21.813Z,25.50
2022-09-04T13:11:05.648Z,25.60
2022-09-04T13:15:52.691Z,25.50
2022-09-04T13:20:35.781Z,25.50
2022-09-04T13:49:54.308Z,25.80
2022-09-04T13:54:34.980Z,25.80
2022-09-04T13:59:16.234Z,25.80
2022-09-04T14:03:53.264Z,25.90
2022-09-04T14:08:31.432Z,25.90
2022-09-04T14:13:23.334Z,25.90
2022-09-04T14:18:13.532Z,25.90
2022-09-04T14:22:58.093Z,25.90
2022-09-04T14:27:40.550Z,25.90
2022-09-04T14:32:25.564Z,25.90
2022-09-04T14:37:07.947Z,26.00
2022-09-04T14:42:00.261Z,26.10
2022-09-04T14:46:46.463Z,26.00
2022-09-04T14:51:35.351Z,26.00
2022-09-04T14:56:20.510Z,26.00
2022-09-04T15:01:00.678Z,26.00
2022-09-04T15:05:47.240Z,26.00
2022-09-04T15:10:26.026Z,26.10
2022-09-04T15:15:09.704Z,26.10
2022-09-04T15:19:49.413Z,26.10
2022-09-04T15:24:30.897Z,26.20
2022-09-04T15:29:09.535Z,26.20
2022-09-04T15:33:44.950Z,26.20
2022-09-04T15:38:21.684Z,26.10
2022-09-04T15:43:04.602Z,26.10
2022-09-04T15:47:56.855Z,26.00
2022-09-04T15:52:39.921Z,26.00
2022-09-04T15:57:21.176Z,25.90
2022-09-04T16:02:11.700Z,25.80
2022-09-04T16:06:47.998Z,25.60
2022-09-04T16:11:28.448Z,25.50
2022-09-04T16:16:08.398Z,25.50
2022-09-04T16:20:51.310Z,25.40
2022-09-04T16:25:29.589Z,25.40
2022-09-04T16:30:05.909Z,25.40
2022-09-04T16:34:48.052Z,25.40
2022-09-04T16:39:29.009Z,25.40
2022-09-04T16:44:13.875Z,25.30
2022-09-04T16:48:53.734Z,25.30
2022-09-04T16:53:36.777Z,25.20
2022-09-04T16:58:35.789Z,25.10
2022-09-04T17:03:22.560Z,25.00
2022-09-04T17:08:03.740Z,25.00
2022-09-04T17:12:49.776Z,24.90
2022-09-04T17:17:30.907Z,24.90
2022-09-04T17:28:55.312Z,24.80
2022-09-04T17:29:14.872Z,24.70
2022-09-04T17:36:11.113Z,24.50
2022-09-04T17:40:51.159Z,24.30
2022-09-04T17:43:14.878Z,24.10
2022-09-04T17:47:44.121Z,24.00
2022-09-04T17:52:24.877Z,23.80
2022-09-04T17:57:04.725Z,23.60
2022-09-04T18:01:44.417Z,23.50
2022-09-04T18:06:26.235Z,23.30
2022-09-04T18:11:04.372Z,23.10
2022-09-04T18:15:44.739Z,23.00
2022-09-04T18:20:28.795Z,22.80
2022-09-04T18:25:12.936Z,22.70
2022-09-04T18:32:51.752Z,22.50
2022-09-04T18:37:23.983Z,22.40
2022-09-04T18:40:07.223Z,22.20
2022-09-04T18:50:22.788Z,22.10
2022-09-04T18:50:28.626Z,21.90
2022-09-04T18:54:42.122Z,21.80
2022-09-04T18:59:22.347Z,21.70
2022-09-04T19:03:58.521Z,21.60
2022-09-04T19:08:38.312Z,21.50
2022-09-04T19:13:21.757Z,21.40
2022-09-04T19:18:03.159Z,21.30
2022-09-04T19:22:40.946Z,21.20
2022-09-04T19:27:27.765Z,21.10
2022-09-04T19:32:08.922Z,21.00
2022-09-04T19:36:52.960Z,20.90
2022-09-04T19:46:03.405Z,20.80
2022-09-04T19:46:43.508Z,20.70
2022-09-04T19:53:30.487Z,20.50
2022-09-04T19:56:31.206Z,20.40
2022-09-04T20:01:15.621Z,20.30
2022-09-04T20:05:57.812Z,20.20
2022-09-04T20:10:42.741Z,20.10
2022-09-04T20:15:22.277Z,20.10
2022-09-04T20:20:06.662Z,20.00
2022-09-04T20:25:01.807Z,20.00
2022-09-04T20:29:42.649Z,19.90
2022-09-04T20:34:34.804Z,19.80
2022-09-04T20:39:13.318Z,19.80
2022-09-04T20:43:57.919Z,19.70
2022-09-04T20:52:51.602Z,19.70
2022-09-04T20:53:52.413Z,19.60
2022-09-04T21:03:06.137Z,19.60
2022-09-04T21:03:59.168Z,19.60
2022-09-04T21:08:41.872Z,19.50
2022-09-04T21:13:24.215Z,19.40
2022-09-04T21:18:18.239Z,19.40
2022-09-04T21:23:08.796Z,19.40
2022-09-04T21:28:08.973Z,19.30
2022-09-04T21:33:20.755Z,19.20
2022-09-04T21:38:03.144Z,19.20
2022-09-04T21:42:59.713Z,19.20
2022-09-04T21:48:04.915Z,19.10
2022-09-04T21:52:55.955Z,19.00
2022-09-04T22:02:27.319Z,19.00
2022-09-04T22:03:15.139Z,18.90
2022-09-04T22:12:58.710Z,18.90
2022-09-04T22:13:38.175Z,18.80
2022-09-04T22:18:22.496Z,18.70
2022-09-04T22:23:50.860Z,18.70
2022-09-04T22:28:53.451Z,18.60
2022-09-04T22:34:15.343Z,18.60
2022-09-04T22:39:36.499Z,18.50
2022-09-04T22:44:27.062Z,18.40
2022-09-04T22:49:36.405Z,18.40
2022-09-04T22:54:28.762Z,18.40
2022-09-04T22:59:44.311Z,18.30
2022-09-04T23:04:37.055Z,18.20
2022-09-04T23:13:57.902Z,18.20
2022-09-04T23:14:52.134Z,18.10
2022-09-04T23:26:07.338Z,18.00
2022-09-04T23:26:59.345Z,18.00
2022-09-04T23:30:10.348Z,18.00
2022-09-04T23:35:14.191Z,17.90
2022-09-04T23:40:14.971Z,17.90
2022-09-04T23:45:30.632Z,17.90
2022-09-04T23:50:18.180Z,17.80
2022-09-04T23:55:23.223Z,17.80
